Saturday, December 15, 2018, 1:26 PM EST
Back to Local

KVSF, Hartness State Airport

Location: Perkinsville, VT, United States Lat: 43.35
Local Time: 1:26 PM EST (18:26 GMT) Lon: -72.517
Time Zone: US/Eastern Elev: 577 ft

Show me the last for .
Show Decoded

2018-12-15 12:54 METAR KVSF 151754Z AUTO 00000KT 10SM SCT034 07/02 A3016 RMK AO2 SLP220 T00670017
                 10078 21011 55007 =
2018-12-15 11:54 METAR KVSF 151654Z AUTO 00000KT 10SM BKN033 07/02 A3016 RMK AO2 SLP217 T00720017
                 =
2018-12-15 10:54 METAR KVSF 151554Z AUTO 00000KT 10SM CLR 05/02 A3017 RMK AO2 SLP224 T00500017 =
2018-12-15 09:54 METAR KVSF 151454Z AUTO 00000KT 10SM CLR 02/01 A3018 RMK AO2 SLP229 T00220006
                 50005 =
2018-12-15 08:54 METAR KVSF 151354Z AUTO 00000KT 8SM FEW033 00/00 A3019 RMK AO2 SLP230 T00000000
                 =
2018-12-15 07:54 METAR KVSF 151254Z AUTO 00000KT 5SM BR OVC032 M01/M01 A3018 RMK AO2 SLP226
                 T10061006 =
2018-12-15 06:54 METAR KVSF 151154Z AUTO 00000KT 5SM BR OVC032 M01/M01 A3017 RMK AO2 SLP223 I6000
                 T10111011 10000 21022 53013 =
2018-12-15 06:07 METAR KVSF 151107Z AUTO 00000KT 3SM BR SCT002 OVC035 M01/M01 A3015 RMK AO2
                 T10111011 =
2018-12-15 05:59 METAR KVSF 151059Z AUTO 00000KT 2SM BR BKN002 OVC035 M01/M01 A3015 RMK AO2
                 T10111011 =
2018-12-15 05:53 METAR KVSF 151053Z AUTO 06004KT 1 3/4SM BR SCT002 OVC036 M01/M01 A3015 RMK AO2
                 SLP218 T10111011 =
2018-12-15 05:52 METAR KVSF 151052Z AUTO 08003KT 1 3/4SM BR SCT002 OVC036 M01/M01 A3015 RMK AO2 =
2018-12-15 05:44 METAR KVSF 151044Z AUTO 00000KT 2SM BR BKN002 OVC036 M01/M01 A3015 RMK AO2 VIS 1
                 1/2V3 T10111011 =
2018-12-15 04:54 METAR KVSF 150954Z AUTO 00000KT 5SM BR BKN002 M02/M02 A3013 RMK AO2 SLP209
                 T10221022 =
2018-12-15 04:10 METAR KVSF 150910Z AUTO 00000KT 4SM BR BKN002 M02/M02 A3013 RMK AO2 T10221022 =
2018-12-15 03:54 METAR KVSF 150854Z AUTO 11003KT 3SM BR FEW002 SCT044 M02/M02 A3013 RMK AO2
                 SLP210 I1000 I3000 T10221022 58006 =
2018-12-15 03:15 METAR KVSF 150815Z AUTO 00000KT 6SM BR FEW002 BKN043 M02/M02 A3014 RMK AO2
                 T10171017 =
2018-12-15 02:54 METAR KVSF 150754Z AUTO 25003KT 3SM BR SCT044 M02/M02 A3015 RMK AO2 SLP216
                 T10221022 =
2018-12-15 01:54 METAR KVSF 150654Z AUTO 00000KT 5SM BR CLR M01/M01 A3016 RMK AO2 SLP219
                 T10111011 =
2018-12-15 00:54 METAR KVSF 150554Z AUTO 00000KT 8SM BKN033 OVC080 M01/M01 A3015 RMK AO2 SLP216
                 60000 T10061006 10011 21006 56017 =
2018-12-14 23:54 METAR KVSF 150454Z AUTO 36003KT 9SM SCT011 OVC031 01/00 A3016 RMK AO2 SLP221
                 T00060000 400221050 =
2018-12-14 23:41 METAR KVSF 150441Z AUTO 00000KT 9SM FEW011 OVC031 00/00 A3016 RMK AO2 T00000000
                 =
2018-12-14 23:16 METAR KVSF 150416Z AUTO 00000KT 9SM BKN011 BKN031 OVC065 01/00 A3018 RMK AO2
                 T00060000 =
2018-12-14 22:54 METAR KVSF 150354Z AUTO 00000KT 9SM BKN035 OVC065 00/M01 A3018 RMK AO2 UPE0256
                 SLP228 P0000 T00001006 =
2018-12-14 21:54 METAR KVSF 150254Z AUTO 00000KT 10SM UP FEW029 BKN060 OVC075 00/M01 A3020 RMK
                 AO2 UPB44 SLP234 P0000 60000 T00001006 56027 =
2018-12-14 21:44 METAR KVSF 150244Z AUTO 00000KT 10SM UP SCT029 OVC065 00/M01 A3020 RMK AO2 UPB44
                 P0000 T00001006 =
2018-12-14 21:18 METAR KVSF 150218Z AUTO 00000KT 10SM SCT013 BKN029 OVC080 00/M01 A3022 RMK AO2
                 T00001006 =
2018-12-14 20:54 METAR KVSF 150154Z AUTO 00000KT 10SM BKN014 OVC030 00/M01 A3022 RMK AO2 SLP242
                 T00001006 =
2018-12-14 20:45 METAR KVSF 150145Z AUTO 00000KT 10SM BKN014 OVC030 00/M01 A3022 RMK AO2
                 T00001006 =
2018-12-14 19:54 METAR KVSF 150054Z AUTO 00000KT 10SM OVC032 00/M01 A3025 RMK AO2 SLP252
                 T00001006 =
2018-12-14 18:54 METAR KVSF 142354Z AUTO 32003KT 10SM FEW016 OVC033 01/M01 A3028 RMK AO2 SLP262
                 T00061006 10022 20006 58017 =
2018-12-14 18:17 METAR KVSF 142317Z AUTO 00000KT 10SM BKN030 OVC034 01/M01 A3029 RMK AO2
                 T00111006 =
2018-12-14 17:54 METAR KVSF 142254Z AUTO 00000KT 10SM FEW017 OVC029 02/00 A3031 RMK AO2 SLP270
                 T00220000 =
2018-12-14 17:42 METAR KVSF 142242Z AUTO 00000KT 10SM BKN029 OVC037 02/M01 A3031 RMK AO2
                 T00171006 =
2018-12-14 17:01 METAR KVSF 142201Z AUTO 18005KT 10SM OVC030 02/00 A3032 RMK AO2 T00220000 =
2018-12-14 16:54 METAR KVSF 142154Z AUTO 18006KT 10SM OVC028 02/M01 A3031 RMK AO2 SLP273
                 T00221006 =
2018-12-14 15:54 METAR KVSF 142054Z AUTO 00000KT 10SM OVC020 02/M01 A3033 RMK AO2 SLP278
                 T00221006 56012 =
2018-12-14 14:54 METAR KVSF 141954Z AUTO 00000KT 10SM OVC029 02/M01 A3033 RMK AO2 SLP280
                 T00171011 =
2018-12-14 14:47 METAR KVSF 141947Z AUTO VRB03KT 10SM OVC029 02/M01 A3033 RMK AO2 T00171011 =
2018-12-14 13:54 METAR KVSF 141854Z AUTO 17006KT 10SM OVC035 02/M02 A3034 RMK AO2 SLP284
                 T00171017 =

Support USWX by starting your Amazon purchase here.